createdAt,value
2017-05-03T00:00:11.930Z,89.41
2017-05-03T00:00:24.629Z,89.41
2017-05-03T00:00:37.247Z,89.61
2017-05-03T00:00:50.369Z,89.51
2017-05-03T00:01:02.450Z,89.7
2017-05-03T00:01:15.561Z,89.61
2017-05-03T00:01:28.700Z,89.61
2017-05-03T00:01:41.802Z,89.61
2017-05-03T00:01:54.900Z,89.51
2017-05-03T00:02:08.049Z,89.61
2017-05-03T00:02:20.660Z,89.7
2017-05-03T00:02:33.267Z,89.22
2017-05-03T00:02:46.414Z,89.41
2017-05-03T00:02:59.551Z,89.7
2017-05-03T00:03:11.119Z,89.22
2017-05-03T00:03:24.249Z,89.51
2017-05-03T00:03:37.379Z,89.12
2017-05-03T00:03:50.499Z,89.22
2017-05-03T00:04:03.173Z,88.93
2017-05-03T00:04:15.360Z,89.12
2017-05-03T00:04:28.558Z,89.03
2017-05-03T00:04:41.655Z,89.03
2017-05-03T00:04:54.763Z,88.74
2017-05-03T00:05:07.917Z,89.03
2017-05-03T00:05:20.545Z,88.93
2017-05-03T00:05:33.203Z,88.84
2017-05-03T00:05:46.360Z,89.12
2017-05-03T00:05:59.500Z,89.12
2017-05-03T00:06:12.076Z,89.41
2017-05-03T00:06:25.255Z,89.12
2017-05-03T00:06:37.898Z,89.32
2017-05-03T00:06:51.020Z,89.22
2017-05-03T00:07:04.177Z,89.12
2017-05-03T00:07:17.261Z,88.65
2017-05-03T00:07:30.380Z,88.65
2017-05-03T00:07:43.570Z,88.55
2017-05-03T00:07:56.688Z,89.03
2017-05-03T00:08:09.290Z,88.93
2017-05-03T00:08:21.425Z,89.03
2017-05-03T00:08:34.533Z,89.03
2017-05-03T00:08:47.731Z,88.93
2017-05-03T00:09:00.919Z,89.03
2017-05-03T00:09:14.046Z,88.93
2017-05-03T00:09:27.144Z,89.03
2017-05-03T00:09:39.757Z,88.84
2017-05-03T00:09:52.337Z,88.84
2017-05-03T00:10:05.035Z,88.84
2017-05-03T00:10:18.202Z,88.74
2017-05-03T00:10:30.792Z,88.84
2017-05-03T00:10:43.468Z,88.84
2017-05-03T00:10:56.626Z,88.65
2017-05-03T00:11:09.699Z,88.74
2017-05-03T00:11:23.004Z,88.74
2017-05-03T00:11:36.172Z,88.74
2017-05-03T00:11:49.278Z,88.74
2017-05-03T00:12:03.429Z,88.35
2017-05-03T00:12:16.149Z,88.26
2017-05-03T00:12:28.804Z,88.74
2017-05-03T00:12:41.958Z,88.65
2017-05-03T00:12:55.018Z,88.65
2017-05-03T00:13:08.141Z,88.65
2017-05-03T00:13:20.288Z,88.45
2017-05-03T00:13:33.448Z,88.74
2017-05-03T00:13:46.542Z,88.65
2017-05-03T00:13:59.661Z,88.55
2017-05-03T00:14:12.794Z,88.65
2017-05-03T00:14:25.437Z,88.55
2017-05-03T00:14:38.618Z,88.55
2017-05-03T00:14:51.726Z,88.55
2017-05-03T00:15:04.349Z,88.45
2017-05-03T00:15:17.010Z,88.45
2017-05-03T00:15:30.089Z,88.35
2017-05-03T00:15:42.757Z,88.35
2017-05-03T00:15:55.845Z,88.35
2017-05-03T00:16:08.499Z,88.26
2017-05-03T00:16:21.661Z,88.26
2017-05-03T00:16:34.830Z,88.35
2017-05-03T00:16:47.962Z,88.26
2017-05-03T00:17:00.085Z,88.26
2017-05-03T00:17:13.220Z,88.26
2017-05-03T00:17:25.894Z,88.45
2017-05-03T00:17:38.526Z,88.07
2017-05-03T00:17:51.650Z,88.26
2017-05-03T00:18:04.256Z,88.45
2017-05-03T00:18:17.368Z,88.17
2017-05-03T00:18:29.958Z,87.88
2017-05-03T00:18:42.592Z,88.07
2017-05-03T00:18:55.673Z,87.88
2017-05-03T00:19:08.334Z,87.78
2017-05-03T00:19:20.974Z,88.17
2017-05-03T00:19:34.179Z,87.88
2017-05-03T00:19:47.352Z,87.98
2017-05-03T00:20:00.507Z,88.07
2017-05-03T00:20:13.159Z,88.07
2017-05-03T00:20:25.878Z,87.88
2017-05-03T00:20:38.561Z,87.88
2017-05-03T00:20:51.684Z,87.88
2017-05-03T00:21:04.861Z,88.07
2017-05-03T00:21:18.066Z,88.07
2017-05-03T00:21:31.460Z,88.07
2017-05-03T00:21:44.635Z,87.98
2017-05-03T00:21:57.794Z,88.07
2017-05-03T00:22:09.878Z,88.07
2017-05-03T00:22:22.517Z,88.26
2017-05-03T00:22:35.686Z,88.07
2017-05-03T00:22:48.289Z,88.07
2017-05-03T00:23:01.452Z,88.17
2017-05-03T00:23:14.103Z,88.07
2017-05-03T00:23:27.260Z,88.07
2017-05-03T00:23:40.391Z,88.07
2017-05-03T00:23:53.526Z,88.07
2017-05-03T00:24:06.706Z,87.98
2017-05-03T00:24:19.845Z,87.88
2017-05-03T00:24:33.000Z,88.07
2017-05-03T00:24:46.121Z,88.07
2017-05-03T00:24:59.293Z,88.07
2017-05-03T00:25:12.391Z,87.98
2017-05-03T00:25:25.037Z,88.26
2017-05-03T00:25:38.134Z,88.26
2017-05-03T00:25:51.240Z,87.98
2017-05-03T00:26:04.371Z,87.88
2017-05-03T00:26:16.715Z,88.35
2017-05-03T00:26:30.094Z,88.17
2017-05-03T00:26:42.810Z,88.17
2017-05-03T00:26:55.924Z,88.07
2017-05-03T00:27:08.619Z,88.07
2017-05-03T00:27:21.244Z,88.07
2017-05-03T00:27:34.343Z,88.26
2017-05-03T00:27:47.516Z,88.17
2017-05-03T00:28:00.173Z,88.07
2017-05-03T00:28:13.381Z,88.17
2017-05-03T00:28:26.493Z,88.35
2017-05-03T00:28:39.590Z,88.07
2017-05-03T00:28:52.756Z,88.26
2017-05-03T00:29:05.856Z,88.26
2017-05-03T00:29:18.540Z,88.26
2017-05-03T00:29:31.688Z,88.17
2017-05-03T00:29:44.850Z,88.26
2017-05-03T00:29:57.950Z,88.07
2017-05-03T00:30:10.589Z,88.07
2017-05-03T00:30:23.297Z,88.26
2017-05-03T00:30:35.974Z,88.35
2017-05-03T00:30:48.670Z,88.35
2017-05-03T00:31:01.760Z,88.07
2017-05-03T00:31:14.869Z,88.26
2017-05-03T00:31:27.966Z,88.17
2017-05-03T00:31:41.073Z,88.17
2017-05-03T00:31:53.647Z,88.17
2017-05-03T00:32:06.766Z,88.26
2017-05-03T00:32:19.937Z,88.17
2017-05-03T00:32:33.045Z,88.17
2017-05-03T00:32:45.643Z,87.88
2017-05-03T00:32:58.763Z,88.35
2017-05-03T00:33:11.986Z,88.45
2017-05-03T00:33:25.119Z,87.88
2017-05-03T00:33:37.245Z,87.98
2017-05-03T00:33:50.391Z,88.55
2017-05-03T00:34:03.517Z,88.17
2017-05-03T00:34:16.649Z,88.55
2017-05-03T00:34:30.440Z,88.17
2017-05-03T00:34:43.590Z,88.35
2017-05-03T00:34:56.762Z,88.26
2017-05-03T00:35:09.366Z,88.17
2017-05-03T00:35:21.996Z,87.98
2017-05-03T00:35:35.143Z,87.98
2017-05-03T00:35:48.779Z,88.07
2017-05-03T00:36:01.860Z,88.26
2017-05-03T00:36:14.602Z,88.35
2017-05-03T00:36:27.720Z,88.35
2017-05-03T00:36:40.822Z,88.35
2017-05-03T00:36:53.433Z,88.45
2017-05-03T00:37:05.623Z,87.98
2017-05-03T00:37:18.780Z,87.59
2017-05-03T00:37:30.901Z,87.59
2017-05-03T00:37:44.056Z,87.98
2017-05-03T00:37:56.666Z,87.98
2017-05-03T00:38:09.782Z,87.98
2017-05-03T00:38:23.406Z,88.07
2017-05-03T00:38:36.568Z,87.98
2017-05-03T00:38:49.749Z,88.07
2017-05-03T00:39:02.915Z,87.98
2017-05-03T00:39:16.082Z,87.98
2017-05-03T00:39:29.229Z,87.4
2017-05-03T00:39:42.375Z,87.49
2017-05-03T00:39:55.516Z,87.49
2017-05-03T00:40:08.194Z,87.4
2017-05-03T00:40:21.341Z,87.78
2017-05-03T00:40:34.501Z,87.49
2017-05-03T00:40:47.161Z,87.88
2017-05-03T00:41:00.239Z,87.88
2017-05-03T00:41:13.372Z,87.59
2017-05-03T00:41:26.771Z,87.78
2017-05-03T00:41:39.982Z,87.88
2017-05-03T00:41:53.175Z,87.78
2017-05-03T00:42:08.234Z,87.68
2017-05-03T00:42:21.430Z,87.78
2017-05-03T00:42:34.561Z,87.68
2017-05-03T00:42:47.751Z,87.68
2017-05-03T00:43:00.994Z,87.88
2017-05-03T00:43:14.131Z,87.78
2017-05-03T00:43:27.323Z,87.98
2017-05-03T00:43:40.488Z,87.68
2017-05-03T00:43:53.632Z,87.78
2017-05-03T00:44:06.301Z,87.68
2017-05-03T00:44:19.386Z,87.98
2017-05-03T00:44:31.994Z,87.98
2017-05-03T00:44:45.164Z,87.78
2017-05-03T00:44:57.806Z,87.59
2017-05-03T00:45:11.015Z,87.59
2017-05-03T00:45:25.216Z,87.59
2017-05-03T00:45:38.406Z,87.4
2017-05-03T00:45:51.111Z,87.4
2017-05-03T00:46:04.261Z,87.4
2017-05-03T00:46:17.431Z,87.59
2017-05-03T00:46:30.588Z,87.78
2017-05-03T00:46:43.686Z,87.88
2017-05-03T00:46:56.909Z,87.59
2017-05-03T00:47:09.570Z,87.68
2017-05-03T00:47:22.695Z,87.68
2017-05-03T00:47:35.851Z,87.98
2017-05-03T00:47:49.023Z,87.59
2017-05-03T00:48:02.167Z,87.59
2017-05-03T00:48:14.833Z,87.68
2017-05-03T00:48:27.968Z,87.88
2017-05-03T00:48:41.131Z,87.21
2017-05-03T00:48:53.717Z,87.78
2017-05-03T00:49:06.385Z,87.4
2017-05-03T00:49:19.039Z,87.11
2017-05-03T00:49:31.723Z,87.3
2017-05-03T00:49:44.923Z,87.21
2017-05-03T00:49:58.085Z,87.3
2017-05-03T00:50:11.199Z,87.21
2017-05-03T00:50:23.848Z,87.3
2017-05-03T00:50:38.731Z,87.49
2017-05-03T00:50:51.853Z,87.3
2017-05-03T00:51:04.998Z,87.21
2017-05-03T00:51:18.160Z,87.49
2017-05-03T00:51:31.275Z,87.49
2017-05-03T00:51:44.399Z,87.49
2017-05-03T00:51:57.585Z,87.3
2017-05-03T00:52:10.222Z,87.4
2017-05-03T00:52:23.139Z,87.4
2017-05-03T00:52:36.254Z,87.49
2017-05-03T00:52:48.867Z,87.3
2017-05-03T00:53:02.060Z,87.4
2017-05-03T00:53:14.738Z,87.3
2017-05-03T00:53:27.873Z,87.59
2017-05-03T00:53:41.018Z,87.59
2017-05-03T00:53:54.147Z,87.21
2017-05-03T00:54:07.284Z,87.59
2017-05-03T00:54:20.425Z,87.59
2017-05-03T00:54:33.622Z,87.21
2017-05-03T00:54:46.740Z,87.3
2017-05-03T00:54:59.923Z,87.59
2017-05-03T00:55:11.552Z,87.4
2017-05-03T00:55:24.155Z,87.4
2017-05-03T00:55:37.278Z,87.4
2017-05-03T00:55:50.395Z,87.3
2017-05-03T00:56:03.531Z,87.4
2017-05-03T00:56:16.189Z,87.4
2017-05-03T00:56:29.340Z,86.92
2017-05-03T00:56:42.703Z,87.11
2017-05-03T00:56:55.882Z,87.4
2017-05-03T00:57:09.035Z,87.21
2017-05-03T00:57:22.167Z,87.11
2017-05-03T00:57:34.748Z,86.92
2017-05-03T00:57:47.941Z,86.72
2017-05-03T00:58:01.099Z,86.72
2017-05-03T00:58:14.240Z,86.82
2017-05-03T00:58:27.410Z,87.11
2017-05-03T00:58:40.580Z,87.3
2017-05-03T00:58:53.741Z,86.82
2017-05-03T00:59:06.861Z,86.92
2017-05-03T00:59:20.035Z,86.92
2017-05-03T00:59:33.165Z,86.82
2017-05-03T00:59:46.247Z,87.21
2017-05-03T00:59:58.903Z,86.82
2017-05-03T01:00:12.212Z,87.01
2017-05-03T01:00:24.850Z,86.92
2017-05-03T01:00:37.472Z,86.82
2017-05-03T01:00:50.593Z,86.92
2017-05-03T01:01:03.205Z,86.92
2017-05-03T01:01:16.324Z,87.21
2017-05-03T01:01:28.993Z,87.01
2017-05-03T01:01:42.184Z,86.92
2017-05-03T01:01:55.326Z,87.11
2017-05-03T01:02:07.942Z,86.82
2017-05-03T01:02:21.087Z,86.92
2017-05-03T01:02:34.254Z,87.21
2017-05-03T01:02:47.343Z,87.01
2017-05-03T01:03:00.425Z,86.82
2017-05-03T01:03:13.636Z,86.82
2017-05-03T01:03:26.777Z,87.21
2017-05-03T01:03:39.925Z,86.92
2017-05-03T01:03:52.531Z,87.11
2017-05-03T01:04:05.145Z,86.72
2017-05-03T01:04:17.770Z,86.92
2017-05-03T01:04:30.899Z,87.11
2017-05-03T01:04:44.048Z,87.21
2017-05-03T01:04:56.689Z,87.01
2017-05-03T01:05:09.807Z,87.11
2017-05-03T01:05:22.904Z,87.11
2017-05-03T01:05:35.989Z,87.01
2017-05-03T01:05:49.063Z,86.92
2017-05-03T01:06:02.174Z,86.82
2017-05-03T01:06:14.331Z,86.72
2017-05-03T01:06:27.451Z,86.92
2017-05-03T01:06:41.872Z,87.44
2017-05-03T01:06:55.074Z,87.35
2017-05-03T01:07:07.745Z,87.59
2017-05-03T01:07:20.344Z,87.44
2017-05-03T01:07:33.478Z,87.4
2017-05-03T01:07:46.094Z,87.4
2017-05-03T01:07:59.171Z,87.44
2017-05-03T01:08:11.344Z,87.3
2017-05-03T01:08:23.553Z,87.63
2017-05-03T01:08:36.660Z,87.63
2017-05-03T01:08:49.749Z,87.3
2017-05-03T01:09:02.965Z,87.59
2017-05-03T01:09:15.595Z,87.68
2017-05-03T01:09:28.742Z,87.59
2017-05-03T01:09:41.839Z,87.59
2017-05-03T01:09:55.647Z,87.59
2017-05-03T01:10:07.824Z,87.4
2017-05-03T01:10:20.478Z,87.59
2017-05-03T01:10:33.661Z,87.4
2017-05-03T01:10:46.800Z,87.59
2017-05-03T01:10:58.950Z,87.21
2017-05-03T01:11:12.118Z,87.3
2017-05-03T01:11:25.247Z,87.11
2017-05-03T01:11:38.633Z,87.21
2017-05-03T01:11:51.782Z,87.11
2017-05-03T01:12:04.884Z,87.4
2017-05-03T01:12:18.077Z,87.3
2017-05-03T01:12:30.739Z,87.4
2017-05-03T01:12:43.381Z,86.92
2017-05-03T01:12:56.476Z,87.21
2017-05-03T01:13:09.561Z,87.49
2017-05-03T01:13:22.167Z,87.59
2017-05-03T01:13:34.801Z,87.21
2017-05-03T01:13:47.923Z,87.21
2017-05-03T01:14:01.034Z,87.21
2017-05-03T01:14:14.171Z,86.82
2017-05-03T01:14:27.314Z,87.3
2017-05-03T01:14:40.522Z,86.82
2017-05-03T01:14:53.657Z,87.11
2017-05-03T01:15:06.839Z,87.11
2017-05-03T01:15:19.472Z,87.21
2017-05-03T01:15:32.585Z,87.21
2017-05-03T01:15:45.675Z,87.4
2017-05-03T01:15:58.771Z,86.92
2017-05-03T01:16:11.895Z,86.92
2017-05-03T01:16:25.032Z,87.01
2017-05-03T01:16:38.190Z,87.3
2017-05-03T01:16:51.432Z,87.01
2017-05-03T01:17:04.582Z,87.21
2017-05-03T01:17:18.565Z,87.11
2017-05-03T01:17:31.725Z,87.21
2017-05-03T01:17:44.872Z,87.11
2017-05-03T01:17:58.032Z,87.21
2017-05-03T01:18:11.134Z,87.4
2017-05-03T01:18:23.775Z,87.4
2017-05-03T01:18:36.956Z,87.4
2017-05-03T01:18:50.036Z,87.3
2017-05-03T01:19:03.141Z,87.11
2017-05-03T01:19:16.272Z,87.4
2017-05-03T01:19:29.451Z,87.21
2017-05-03T01:19:42.592Z,87.49
2017-05-03T01:19:55.730Z,87.3
2017-05-03T01:20:07.857Z,87.4
2017-05-03T01:20:20.995Z,87.21
2017-05-03T01:20:34.146Z,87.21
2017-05-03T01:20:47.289Z,86.82
2017-05-03T01:20:59.910Z,86.82
2017-05-03T01:21:13.001Z,87.21
2017-05-03T01:21:26.144Z,86.82
2017-05-03T01:21:38.762Z,86.92
2017-05-03T01:21:51.899Z,86.82
2017-05-03T01:22:05.044Z,86.82
2017-05-03T01:22:18.199Z,87.59
2017-05-03T01:22:31.229Z,87.4
2017-05-03T01:22:44.342Z,86.82
2017-05-03T01:22:57.483Z,86.92
2017-05-03T01:23:10.647Z,86.92
2017-05-03T01:23:23.826Z,86.92
2017-05-03T01:23:36.971Z,87.4
2017-05-03T01:23:49.654Z,87.11
2017-05-03T01:24:02.801Z,87.01
2017-05-03T01:24:15.413Z,86.72
2017-05-03T01:24:28.490Z,87.21
2017-05-03T01:24:41.607Z,86.92
2017-05-03T01:24:54.726Z,86.92
2017-05-03T01:25:07.905Z,87.11
2017-05-03T01:25:21.075Z,87.11
2017-05-03T01:25:33.718Z,87.11
2017-05-03T01:25:46.842Z,86.92
2017-05-03T01:25:58.935Z,86.82
2017-05-03T01:26:12.135Z,86.92
2017-05-03T01:26:25.328Z,87.01
2017-05-03T01:26:38.486Z,86.92
2017-05-03T01:26:51.829Z,86.92
2017-05-03T01:27:04.967Z,86.92
2017-05-03T01:27:17.564Z,86.92
2017-05-03T01:27:30.241Z,87.11
2017-05-03T01:27:42.856Z,87.4
2017-05-03T01:27:55.972Z,87.21
2017-05-03T01:28:09.157Z,86.82
2017-05-03T01:28:21.802Z,87.11
2017-05-03T01:28:34.470Z,87.21
2017-05-03T01:28:47.639Z,86.92
2017-05-03T01:29:00.809Z,86.92
2017-05-03T01:29:13.906Z,87.11
2017-05-03T01:29:26.565Z,87.21
2017-05-03T01:29:39.647Z,87.21
2017-05-03T01:29:52.785Z,86.92
2017-05-03T01:30:05.910Z,87.11
2017-05-03T01:30:18.057Z,86.72
2017-05-03T01:30:31.195Z,86.82
2017-05-03T01:30:44.365Z,87.21
2017-05-03T01:30:57.547Z,87.11
2017-05-03T01:31:10.192Z,86.82
2017-05-03T01:31:22.869Z,87.01
2017-05-03T01:31:35.981Z,86.92
2017-05-03T01:31:49.140Z,86.72
2017-05-03T01:32:02.313Z,87.3
2017-05-03T01:32:14.924Z,87.68
2017-05-03T01:32:28.034Z,87.3
2017-05-03T01:32:41.155Z,87.21
2017-05-03T01:32:53.786Z,87.3
2017-05-03T01:33:06.907Z,87.4
2017-05-03T01:33:20.046Z,87.21
2017-05-03T01:33:33.125Z,87.3
2017-05-03T01:33:46.252Z,86.82
2017-05-03T01:33:59.440Z,87.68
2017-05-03T01:34:11.545Z,87.4
2017-05-03T01:34:24.161Z,87.49
2017-05-03T01:34:37.331Z,87.59
2017-05-03T01:34:50.471Z,87.59
2017-05-03T01:35:03.120Z,87.49
2017-05-03T01:35:16.265Z,87.3
2017-05-03T01:35:29.416Z,87.4
2017-05-03T01:35:42.494Z,87.59
2017-05-03T01:35:56.222Z,87.59
2017-05-03T01:36:09.337Z,87.49
2017-05-03T01:36:21.989Z,87.68
2017-05-03T01:36:35.173Z,87.3
2017-05-03T01:36:48.313Z,87.3
2017-05-03T01:37:01.463Z,87.49
2017-05-03T01:37:14.108Z,87.21
2017-05-03T01:37:26.746Z,87.4
2017-05-03T01:37:39.871Z,87.68
2017-05-03T01:37:53.028Z,87.59
2017-05-03T01:38:06.126Z,87.4
2017-05-03T01:38:18.711Z,87.49
2017-05-03T01:38:31.356Z,86.82
2017-05-03T01:38:44.475Z,87.3
2017-05-03T01:38:57.595Z,87.59
2017-05-03T01:39:10.672Z,87.59
2017-05-03T01:39:23.797Z,87.59
2017-05-03T01:39:36.963Z,87.68
2017-05-03T01:39:50.123Z,87.44
2017-05-03T01:40:03.248Z,87.59
2017-05-03T01:40:16.367Z,87.3
2017-05-03T01:40:29.504Z,87.78
2017-05-03T01:40:42.600Z,87.78
2017-05-03T01:40:55.726Z,87.98
2017-05-03T01:41:08.798Z,87.68
2017-05-03T01:41:21.403Z,87.3
2017-05-03T01:41:34.087Z,87.68
2017-05-03T01:41:47.205Z,87.98
2017-05-03T01:42:00.507Z,87.59
2017-05-03T01:42:12.657Z,87.78
2017-05-03T01:42:25.276Z,87.3
2017-05-03T01:42:38.454Z,87.21
2017-05-03T01:42:51.648Z,87.4
2017-05-03T01:43:04.759Z,87.78
2017-05-03T01:43:16.936Z,87.3
2017-05-03T01:43:30.068Z,87.3
2017-05-03T01:43:43.198Z,87.68
2017-05-03T01:43:56.329Z,87.78
2017-05-03T01:44:08.897Z,87.11
2017-05-03T01:44:21.004Z,87.68
2017-05-03T01:44:34.166Z,87.11
2017-05-03T01:44:47.309Z,87.59
2017-05-03T01:45:00.501Z,87.4
2017-05-03T01:45:13.113Z,87.3
2017-05-03T01:45:25.748Z,87.3
2017-05-03T01:45:38.839Z,87.21
2017-05-03T01:45:51.462Z,87.4
2017-05-03T01:46:04.067Z,87.21
2017-05-03T01:46:17.246Z,87.49
2017-05-03T01:46:30.351Z,87.3
2017-05-03T01:46:43.501Z,87.4
2017-05-03T01:46:56.120Z,87.3
2017-05-03T01:47:09.247Z,87.3
2017-05-03T01:47:21.846Z,87.21
2017-05-03T01:47:34.982Z,87.4
2017-05-03T01:47:47.599Z,87.21
2017-05-03T01:48:00.774Z,87.3
2017-05-03T01:48:13.412Z,87.21
2017-05-03T01:48:26.565Z,87.21
2017-05-03T01:48:39.683Z,87.68
2017-05-03T01:48:52.793Z,87.21
2017-05-03T01:49:05.960Z,87.21
2017-05-03T01:49:18.596Z,87.3
2017-05-03T01:49:31.203Z,87.68
2017-05-03T01:49:43.828Z,87.3
2017-05-03T01:49:56.528Z,87.21
2017-05-03T01:50:09.727Z,87.3
2017-05-03T01:50:22.393Z,87.4
2017-05-03T01:50:35.025Z,87.3
2017-05-03T01:50:48.135Z,87.3
2017-05-03T01:51:01.264Z,87.59
2017-05-03T01:51:13.891Z,87.98
2017-05-03T01:51:27.002Z,87.21
2017-05-03T01:51:40.057Z,87.3
2017-05-03T01:51:53.216Z,87.4
2017-05-03T01:52:06.421Z,87.4
2017-05-03T01:52:19.593Z,87.3
2017-05-03T01:52:32.726Z,87.49
2017-05-03T01:52:45.847Z,87.21
2017-05-03T01:52:59.004Z,87.21
2017-05-03T01:53:12.152Z,87.11
2017-05-03T01:53:25.310Z,87.3
2017-05-03T01:53:37.992Z,87.4
2017-05-03T01:53:51.146Z,87.59
2017-05-03T01:54:04.305Z,87.3
2017-05-03T01:54:16.983Z,87.3
2017-05-03T01:54:29.665Z,87.3
2017-05-03T01:54:42.850Z,87.3
2017-05-03T01:54:56.018Z,87.4
2017-05-03T01:55:09.115Z,87.3
2017-05-03T01:55:22.269Z,87.3
2017-05-03T01:55:34.420Z,87.3
2017-05-03T01:55:47.586Z,87.3
2017-05-03T01:56:00.698Z,87.3
2017-05-03T01:56:13.812Z,87.3
2017-05-03T01:56:26.934Z,87.3
2017-05-03T01:56:39.586Z,87.21
2017-05-03T01:56:52.695Z,87.21
2017-05-03T01:57:05.521Z,87.11
2017-05-03T01:57:18.185Z,87.3
2017-05-03T01:57:31.342Z,87.4
2017-05-03T01:57:44.481Z,87.49
2017-05-03T01:57:57.661Z,87.4
2017-05-03T01:58:10.838Z,87.11
2017-05-03T01:58:22.979Z,87.21
2017-05-03T01:58:36.138Z,87.21
2017-05-03T01:58:48.771Z,87.4
2017-05-03T01:59:01.905Z,87.21
2017-05-03T01:59:14.550Z,87.3
2017-05-03T01:59:29.032Z,87.49
2017-05-03T01:59:42.161Z,87.3
2017-05-03T01:59:55.271Z,87.49
2017-05-03T02:00:08.385Z,87.3
2017-05-03T02:00:20.485Z,87.49
2017-05-03T02:00:33.591Z,87.3
2017-05-03T02:00:46.797Z,87.3
2017-05-03T02:00:59.914Z,87.21
2017-05-03T02:01:13.074Z,87.21
2017-05-03T02:01:26.198Z,87.3
2017-05-03T02:01:39.331Z,87.3
2017-05-03T02:01:51.947Z,87.68
2017-05-03T02:02:04.553Z,87.3
2017-05-03T02:02:17.159Z,87.11
2017-05-03T02:02:30.306Z,87.3
2017-05-03T02:02:42.949Z,87.21
2017-05-03T02:02:56.108Z,87.21
2017-05-03T02:03:08.785Z,87.4
2017-05-03T02:03:21.864Z,87.4
2017-05-03T02:03:34.510Z,87.4
2017-05-03T02:03:47.601Z,87.3
2017-05-03T02:04:00.739Z,87.49
2017-05-03T02:04:13.380Z,87.49
2017-05-03T02:04:26.517Z,87.3
2017-05-03T02:04:39.660Z,87.21
2017-05-03T02:04:52.731Z,87.3
2017-05-03T02:05:05.386Z,87.21
2017-05-03T02:05:18.488Z,87.21
2017-05-03T02:05:31.653Z,87.21
2017-05-03T02:05:44.740Z,87.21
2017-05-03T02:05:57.882Z,87.11
2017-05-03T02:06:10.040Z,87.68
2017-05-03T02:06:23.181Z,87.3
2017-05-03T02:06:36.352Z,87.3
2017-05-03T02:06:49.003Z,87.3
2017-05-03T02:07:02.126Z,87.3
2017-05-03T02:07:14.747Z,87.68
2017-05-03T02:07:28.514Z,87.3
2017-05-03T02:07:40.631Z,87.3
2017-05-03T02:07:54.018Z,87.3
2017-05-03T02:08:06.672Z,87.3
2017-05-03T02:08:19.736Z,87.4
2017-05-03T02:08:32.916Z,87.4
2017-05-03T02:08:46.088Z,87.3
2017-05-03T02:08:59.193Z,87.11
2017-05-03T02:09:12.311Z,87.88
2017-05-03T02:09:24.946Z,87.3
2017-05-03T02:09:37.616Z,87.3
2017-05-03T02:09:50.711Z,87.68
2017-05-03T02:10:03.827Z,87.21
2017-05-03T02:10:16.940Z,87.4
2017-05-03T02:10:30.052Z,87.21
2017-05-03T02:10:43.174Z,87.21
2017-05-03T02:10:56.301Z,87.21
2017-05-03T02:11:08.972Z,87.3
2017-05-03T02:11:21.604Z,87.21
2017-05-03T02:11:34.302Z,87.4
2017-05-03T02:11:47.461Z,87.21
2017-05-03T02:12:00.111Z,87.21
2017-05-03T02:12:13.561Z,87.3
2017-05-03T02:12:26.608Z,87.21
2017-05-03T02:12:39.716Z,87.78
2017-05-03T02:12:52.852Z,87.44
2017-05-03T02:13:05.496Z,87.21
2017-05-03T02:13:18.162Z,87.11
2017-05-03T02:13:31.269Z,87.98
2017-05-03T02:13:44.486Z,87.4
2017-05-03T02:13:57.108Z,87.11
2017-05-03T02:14:09.785Z,87.59
2017-05-03T02:14:22.404Z,87.59
2017-05-03T02:14:35.007Z,87.59
2017-05-03T02:14:48.178Z,87.63
2017-05-03T02:15:00.785Z,87.68
2017-05-03T02:15:13.475Z,87.68
2017-05-03T02:15:26.655Z,87.88
2017-05-03T02:15:39.255Z,87.88
2017-05-03T02:15:52.327Z,87.92
2017-05-03T02:16:05.497Z,87.92
2017-05-03T02:16:17.642Z,87.11
2017-05-03T02:16:30.756Z,87.21
2017-05-03T02:16:43.864Z,87.78
2017-05-03T02:16:56.474Z,87.78
2017-05-03T02:17:09.598Z,87.82
2017-05-03T02:17:22.738Z,87.21
2017-05-03T02:17:35.885Z,87.88
2017-05-03T02:17:49.045Z,87.88
2017-05-03T02:18:02.350Z,87.59
2017-05-03T02:18:13.961Z,88.02
2017-05-03T02:18:27.093Z,87.78
2017-05-03T02:18:39.678Z,87.92
2017-05-03T02:18:52.761Z,87.92
2017-05-03T02:19:04.828Z,87.63
2017-05-03T02:19:16.916Z,87.82
2017-05-03T02:19:29.490Z,87.92
2017-05-03T02:19:42.544Z,87.82
2017-05-03T02:19:55.671Z,87.82
2017-05-03T02:20:08.309Z,87.88
2017-05-03T02:20:21.470Z,87.73
2017-05-03T02:20:34.608Z,87.25
2017-05-03T02:20:47.230Z,87.73
2017-05-03T02:21:00.357Z,87.35
2017-05-03T02:21:13.003Z,87.25
2017-05-03T02:21:26.130Z,87.21
2017-05-03T02:21:39.374Z,87.88
2017-05-03T02:21:52.504Z,87.88
2017-05-03T02:22:05.136Z,87.88
2017-05-03T02:22:17.217Z,87.68
2017-05-03T02:22:30.359Z,87.59
2017-05-03T02:22:43.549Z,87.63
2017-05-03T02:22:56.627Z,87.88
2017-05-03T02:23:08.718Z,87.11
2017-05-03T02:23:21.859Z,87.3
2017-05-03T02:23:35.027Z,87.78
2017-05-03T02:23:48.197Z,87.68
2017-05-03T02:24:01.356Z,87.68
2017-05-03T02:24:13.970Z,87.3
2017-05-03T02:24:27.101Z,87.35
2017-05-03T02:24:39.762Z,87.59
2017-05-03T02:24:52.393Z,87.78
2017-05-03T02:25:05.066Z,87.68
2017-05-03T02:25:17.643Z,87.98
2017-05-03T02:25:30.710Z,87.78
2017-05-03T02:25:43.890Z,87.88
2017-05-03T02:25:56.056Z,87.63
2017-05-03T02:26:09.264Z,87.11
2017-05-03T02:26:22.380Z,87.82
2017-05-03T02:26:35.539Z,87.21
2017-05-03T02:26:48.726Z,87.68
2017-05-03T02:27:01.854Z,87.68
2017-05-03T02:27:15.197Z,87.82
2017-05-03T02:27:28.398Z,87.78
2017-05-03T02:27:41.547Z,87.92
2017-05-03T02:27:54.803Z,87.68
2017-05-03T02:28:07.993Z,87.63
2017-05-03T02:28:20.571Z,87.98
2017-05-03T02:28:33.268Z,87.59
2017-05-03T02:28:45.902Z,87.88
2017-05-03T02:28:59.037Z,87.88
2017-05-03T02:29:12.149Z,87.35
2017-05-03T02:29:25.327Z,87.88
2017-05-03T02:29:38.520Z,87.59
2017-05-03T02:29:51.646Z,87.68
2017-05-03T02:30:04.810Z,88.11
2017-05-03T02:30:17.412Z,87.92
2017-05-03T02:30:30.563Z,87.15
2017-05-03T02:30:43.792Z,87.25
2017-05-03T02:30:56.925Z,87.15
2017-05-03T02:31:10.048Z,87.15
2017-05-03T02:31:23.206Z,87.25
2017-05-03T02:31:36.310Z,87.25
2017-05-03T02:31:48.910Z,87.15
2017-05-03T02:32:02.049Z,87.25
2017-05-03T02:32:14.207Z,87.15
2017-05-03T02:32:27.339Z,88.02
2017-05-03T02:32:39.991Z,87.63
2017-05-03T02:32:53.110Z,87.82
2017-05-03T02:33:06.267Z,87.82
2017-05-03T02:33:18.863Z,88.02
2017-05-03T02:33:32.013Z,87.73
2017-05-03T02:33:45.079Z,87.82
2017-05-03T02:33:57.232Z,87.82
2017-05-03T02:34:10.357Z,87.82
2017-05-03T02:34:22.982Z,87.82
2017-05-03T02:34:36.091Z,87.92
2017-05-03T02:34:49.293Z,87.63
2017-05-03T02:35:02.489Z,87.73
2017-05-03T02:35:14.634Z,87.63
2017-05-03T02:35:27.224Z,87.54
2017-05-03T02:35:39.899Z,87.63
2017-05-03T02:35:52.526Z,87.63
2017-05-03T02:36:05.637Z,87.73
2017-05-03T02:36:17.787Z,87.63
2017-05-03T02:36:30.930Z,87.73
2017-05-03T02:36:43.544Z,87.73
2017-05-03T02:36:56.713Z,87.82
2017-05-03T02:37:09.804Z,87.82
2017-05-03T02:37:22.869Z,87.63
2017-05-03T02:37:35.992Z,87.73
2017-05-03T02:37:48.607Z,87.92
2017-05-03T02:38:01.747Z,87.63
2017-05-03T02:38:14.878Z,87.92
2017-05-03T02:38:28.006Z,87.54
2017-05-03T02:38:41.217Z,88.11
2017-05-03T02:38:53.805Z,88.59
2017-05-03T02:39:06.956Z,88.02
2017-05-03T02:39:20.077Z,88.11
2017-05-03T02:39:33.226Z,88.11
2017-05-03T02:39:46.409Z,88.11
2017-05-03T02:39:59.019Z,88.4
2017-05-03T02:40:12.113Z,88.11
2017-05-03T02:40:24.727Z,88.02
2017-05-03T02:40:37.335Z,88.21
2017-05-03T02:40:50.508Z,88.11
2017-05-03T02:41:03.630Z,88.31
2017-05-03T02:41:16.221Z,88.31
2017-05-03T02:41:29.272Z,88.21
2017-05-03T02:41:41.847Z,88.4
2017-05-03T02:41:54.959Z,88.79
2017-05-03T02:42:07.593Z,88.59
2017-05-03T02:42:20.421Z,88.4
2017-05-03T02:42:33.526Z,88.59
2017-05-03T02:42:46.585Z,88.88
2017-05-03T02:42:59.711Z,88.79
2017-05-03T02:43:12.867Z,88.98
2017-05-03T02:43:25.965Z,88.59
2017-05-03T02:43:39.079Z,88.59
2017-05-03T02:43:52.183Z,88.59
2017-05-03T02:44:05.272Z,88.31
2017-05-03T02:44:18.321Z,88.69
2017-05-03T02:44:30.892Z,88.79
2017-05-03T02:44:43.933Z,88.79
2017-05-03T02:44:56.582Z,88.59
2017-05-03T02:45:09.721Z,88.4
2017-05-03T02:45:22.327Z,88.59
2017-05-03T02:45:35.502Z,88.49
2017-05-03T02:45:48.613Z,88.4
2017-05-03T02:46:01.717Z,88.49
2017-05-03T02:46:14.361Z,88.59
2017-05-03T02:46:27.563Z,88.4
2017-05-03T02:46:40.594Z,88.59
2017-05-03T02:46:53.678Z,88.69
2017-05-03T02:47:06.355Z,88.69
2017-05-03T02:47:19.008Z,88.59
2017-05-03T02:47:32.109Z,88.49
2017-05-03T02:47:45.200Z,88.69
2017-05-03T02:47:58.330Z,88.69
2017-05-03T02:48:10.448Z,88.69